Terminal Aerodrome Forecast
Issued by NWS Wilmington, OH

Current Version | Previous Version | Graphics & Text | Print | Product List | Glossary On
Versions: 1 2 3 4 5 6 7 8 9 10 11 12 13 14 15 16 17 18 19 20 21 22 23 24 25 26 27 28 29
000
FTUS41 KILN 040500 RRA
TAFCVG
TAF
KCVG 040548Z 0406/0512 31008KT 5SM -RA BR SCT006 OVC040
      TEMPO 0406/0409 BKN006
     FM040900 32008KT 4SM -RA BR OVC010
     FM041100 33008KT 2SM -RA BR OVC007
     FM041700 33011KT 3SM -RAPL BR OVC007
     FM041900 33012KT 1SM -SN OVC005
     FM050100 35012KT 3SM -SN OVC010
     FM050600 36010KT P6SM BKN015 OVC100=

USA.gov is the U.S. government's official web portal to all federal, state and local government web resources and services.